createdAt,value
2018-05-25T00:00:46.174Z,14.30
2018-05-25T00:03:14.399Z,14.20
2018-05-25T00:05:41.908Z,14.20
2018-05-25T00:08:09.414Z,14.30
2018-05-25T00:10:36.984Z,14.20
2018-05-25T00:13:04.465Z,14.10
2018-05-25T00:15:32.716Z,14.10
2018-05-25T00:18:00.196Z,14.10
2018-05-25T00:20:28.445Z,14.10
2018-05-25T00:22:56.111Z,14.10
2018-05-25T00:25:23.598Z,14.20
2018-05-25T00:27:51.219Z,14.20
2018-05-25T00:30:18.692Z,14.20
2018-05-25T00:32:47.113Z,14.30
2018-05-25T00:35:14.600Z,14.30
2018-05-25T00:37:42.074Z,14.30
2018-05-25T00:40:10.338Z,14.40
2018-05-25T00:42:37.813Z,14.40
2018-05-25T00:45:06.695Z,14.40
2018-05-25T00:47:34.168Z,14.40
2018-05-25T00:50:01.793Z,14.30
2018-05-25T00:52:29.359Z,14.40
2018-05-25T00:57:59.733Z,14.60
2018-05-25T01:00:27.383Z,14.60
2018-05-25T01:02:55.631Z,14.50
2018-05-25T01:05:23.132Z,14.50
2018-05-25T01:07:50.630Z,14.60
2018-05-25T01:10:18.278Z,14.50
2018-05-25T01:12:46.572Z,14.40
2018-05-25T01:15:14.051Z,14.40
2018-05-25T01:17:42.311Z,14.30
2018-05-25T01:20:11.303Z,14.30
2018-05-25T01:22:39.649Z,14.30
2018-05-25T01:25:07.203Z,14.20
2018-05-25T01:27:34.744Z,14.10
2018-05-25T01:30:02.241Z,14.10
2018-05-25T01:32:30.625Z,14.10
2018-05-25T01:34:58.122Z,14.10
2018-05-25T01:37:25.697Z,14.10
2018-05-25T01:39:53.317Z,14.20
2018-05-25T01:42:20.796Z,14.20
2018-05-25T01:44:49.066Z,14.10
2018-05-25T01:47:17.312Z,14.00
2018-05-25T01:49:45.512Z,14.00
2018-05-25T01:52:13.015Z,14.10
2018-05-25T01:54:40.527Z,14.00
2018-05-25T01:57:08.786Z,14.10
2018-05-25T01:59:37.023Z,14.20
2018-05-25T02:02:04.522Z,14.20
2018-05-25T02:04:32.966Z,13.90
2018-05-25T02:07:00.449Z,13.90
2018-05-25T02:09:27.921Z,13.80
2018-05-25T02:11:56.178Z,13.80
2018-05-25T02:14:24.538Z,13.80
2018-05-25T02:16:52.025Z,13.90
2018-05-25T02:19:20.308Z,14.10
2018-05-25T02:21:48.868Z,14.00
2018-05-25T02:24:17.124Z,13.90
2018-05-25T02:26:46.156Z,13.90
2018-05-25T02:29:14.591Z,13.90
2018-05-25T02:31:42.146Z,13.90
2018-05-25T02:34:09.732Z,13.90
2018-05-25T02:36:38.147Z,13.70
2018-05-25T02:39:06.475Z,13.70
2018-05-25T02:41:33.945Z,13.60
2018-05-25T02:44:02.188Z,13.50
2018-05-25T02:46:29.822Z,13.40
2018-05-25T02:48:57.424Z,13.50
2018-05-25T02:51:24.918Z,13.40
2018-05-25T02:53:52.403Z,13.40
2018-05-25T02:56:19.897Z,13.40
2018-05-25T02:58:47.369Z,13.30
2018-05-25T03:01:15.662Z,13.20
2018-05-25T03:03:44.151Z,13.20
2018-05-25T03:06:11.631Z,13.20
2018-05-25T03:08:39.117Z,13.20
2018-05-25T03:11:06.672Z,13.20
2018-05-25T03:13:34.192Z,13.20
2018-05-25T03:16:01.684Z,13.10
2018-05-25T03:18:29.307Z,13.10
2018-05-25T03:20:56.905Z,13.10
2018-05-25T03:23:24.381Z,13.20
2018-05-25T03:25:52.708Z,13.10
2018-05-25T03:28:20.190Z,13.10
2018-05-25T03:30:48.448Z,13.00
2018-05-25T03:33:16.064Z,13.00
2018-05-25T03:35:44.588Z,13.00
2018-05-25T03:38:12.560Z,13.00
2018-05-25T03:40:40.061Z,13.00
2018-05-25T03:43:07.663Z,12.90
2018-05-25T03:45:35.332Z,12.80
2018-05-25T03:48:02.825Z,12.90
2018-05-25T03:50:31.076Z,12.70
2018-05-25T03:52:59.178Z,12.70
2018-05-25T03:55:26.655Z,12.70
2018-05-25T03:57:54.632Z,12.80
2018-05-25T04:00:34.803Z,12.80
2018-05-25T04:03:03.045Z,12.80
2018-05-25T04:05:31.003Z,12.60
2018-05-25T04:07:58.496Z,12.60
2018-05-25T04:10:25.983Z,12.70
2018-05-25T04:12:53.554Z,12.70
2018-05-25T04:15:21.799Z,12.80
2018-05-25T04:17:49.355Z,12.80
2018-05-25T04:20:16.837Z,12.80
2018-05-25T04:22:45.091Z,12.70
2018-05-25T04:25:12.584Z,12.60
2018-05-25T04:27:40.823Z,12.60
2018-05-25T04:30:08.316Z,12.60
2018-05-25T04:32:40.301Z,12.60
2018-05-25T04:35:07.780Z,12.60
2018-05-25T04:37:35.528Z,12.60
2018-05-25T04:40:03.009Z,12.50
2018-05-25T04:42:31.212Z,12.50
2018-05-25T04:44:59.467Z,12.30
2018-05-25T04:47:26.966Z,12.30
2018-05-25T04:49:54.567Z,12.30
2018-05-25T04:52:22.078Z,12.50
2018-05-25T04:54:49.884Z,12.50
2018-05-25T04:57:17.436Z,12.50
2018-05-25T04:59:44.899Z,12.60
2018-05-25T05:02:12.996Z,12.70
2018-05-25T05:04:40.503Z,12.70
2018-05-25T05:07:07.996Z,12.80
2018-05-25T05:09:35.556Z,12.80
2018-05-25T05:12:04.578Z,12.70
2018-05-25T05:14:32.930Z,12.70
2018-05-25T05:17:00.420Z,12.70
2018-05-25T05:19:27.910Z,12.70
2018-05-25T05:21:55.578Z,12.80
2018-05-25T05:24:23.284Z,12.80
2018-05-25T05:26:51.784Z,13.00
2018-05-25T05:29:19.334Z,13.00
2018-05-25T05:31:47.051Z,13.20
2018-05-25T05:34:14.542Z,13.30
2018-05-25T05:36:42.777Z,13.70
2018-05-25T05:39:10.451Z,13.70
2018-05-25T05:41:38.159Z,13.70
2018-05-25T05:44:05.679Z,13.60
2018-05-25T05:46:33.311Z,13.40
2018-05-25T05:49:00.943Z,13.50
2018-05-25T05:51:28.434Z,13.70
2018-05-25T05:53:56.067Z,13.80
2018-05-25T05:56:23.695Z,13.80
2018-05-25T05:58:52.144Z,13.80
2018-05-25T06:01:19.698Z,13.70
2018-05-25T06:03:47.210Z,13.70
2018-05-25T06:06:14.676Z,13.90
2018-05-25T06:08:42.216Z,14.00
2018-05-25T06:11:09.751Z,14.10
2018-05-25T06:13:38.001Z,14.10
2018-05-25T06:16:05.494Z,14.00
2018-05-25T06:18:33.851Z,14.30
2018-05-25T06:21:02.288Z,14.30
2018-05-25T06:23:29.783Z,14.30
2018-05-25T06:25:57.371Z,14.50
2018-05-25T06:28:25.698Z,14.30
2018-05-25T06:30:53.323Z,14.20
2018-05-25T06:33:20.788Z,14.20
2018-05-25T06:35:48.896Z,14.20
2018-05-25T06:38:16.377Z,14.20
2018-05-25T06:40:44.615Z,14.30
2018-05-25T06:43:12.839Z,14.30
2018-05-25T06:45:40.776Z,14.40
2018-05-25T06:48:09.172Z,14.80
2018-05-25T06:50:37.464Z,15.00
2018-05-25T06:53:05.067Z,14.90
2018-05-25T06:55:32.706Z,15.20
2018-05-25T06:58:00.261Z,15.40
2018-05-25T07:00:27.736Z,15.50
2018-05-25T07:02:55.355Z,15.70
2018-05-25T07:05:22.955Z,15.80
2018-05-25T07:07:50.431Z,16.10
2018-05-25T07:10:18.063Z,16.30
2018-05-25T07:12:45.694Z,16.50
2018-05-25T07:15:13.259Z,16.80
2018-05-25T07:17:40.852Z,17.00
2018-05-25T07:20:08.335Z,17.10
2018-05-25T07:22:36.625Z,17.50
2018-05-25T07:25:04.960Z,17.80
2018-05-25T07:27:33.965Z,18.00
2018-05-25T07:30:01.428Z,18.00
2018-05-25T07:32:29.687Z,18.70
2018-05-25T07:34:57.156Z,18.60
2018-05-25T07:37:24.624Z,18.90
2018-05-25T07:39:52.870Z,19.30
2018-05-25T07:42:20.334Z,19.30
2018-05-25T07:44:47.907Z,19.40
2018-05-25T07:47:16.350Z,19.70
2018-05-25T07:49:43.851Z,19.60
2018-05-25T07:52:12.088Z,20.00
2018-05-25T07:54:39.638Z,20.00
2018-05-25T07:57:07.287Z,20.20
2018-05-25T07:59:34.760Z,20.20
2018-05-25T08:02:03.023Z,20.40
2018-05-25T08:04:31.111Z,20.40
2018-05-25T08:06:58.608Z,20.60
2018-05-25T08:09:26.085Z,20.60
2018-05-25T08:11:53.620Z,20.70
2018-05-25T08:14:21.243Z,20.70
2018-05-25T08:16:48.737Z,21.00
2018-05-25T08:19:17.032Z,21.20
2018-05-25T08:21:44.547Z,21.20
2018-05-25T08:24:12.003Z,21.50
2018-05-25T08:26:39.471Z,21.50
2018-05-25T08:29:07.753Z,21.70
2018-05-25T08:31:35.999Z,21.70
2018-05-25T08:34:03.533Z,21.70
2018-05-25T08:36:31.008Z,21.80
2018-05-25T08:38:58.636Z,21.90
2018-05-25T08:41:26.168Z,21.80
2018-05-25T08:43:53.651Z,21.80
2018-05-25T08:46:21.149Z,21.80
2018-05-25T08:48:49.407Z,21.20
2018-05-25T08:51:16.982Z,21.20
2018-05-25T08:53:44.454Z,21.20
2018-05-25T08:56:12.721Z,21.50
2018-05-25T08:58:41.485Z,21.60
2018-05-25T09:01:08.963Z,21.60
2018-05-25T09:03:37.306Z,22.10
2018-05-25T09:06:04.803Z,22.10
2018-05-25T09:08:33.047Z,22.40
2018-05-25T09:11:00.605Z,22.40
2018-05-25T09:13:28.232Z,22.70
2018-05-25T09:15:55.776Z,23.00
2018-05-25T09:18:23.264Z,23.30
2018-05-25T09:20:50.751Z,23.40
2018-05-25T09:23:18.234Z,23.10
2018-05-25T09:25:45.693Z,22.90
2018-05-25T09:28:13.194Z,23.10
2018-05-25T09:30:40.694Z,23.10
2018-05-25T09:33:08.979Z,23.90
2018-05-25T09:35:36.609Z,23.80
2018-05-25T09:38:04.100Z,23.90
2018-05-25T09:40:31.716Z,23.70
2018-05-25T09:42:59.244Z,23.50
2018-05-25T09:45:26.846Z,23.40
2018-05-25T09:47:55.101Z,23.20
2018-05-25T09:50:22.568Z,23.20
2018-05-25T09:52:50.048Z,23.20
2018-05-25T09:55:18.417Z,23.70
2018-05-25T09:57:56.734Z,23.90
2018-05-25T10:00:25.943Z,23.70
2018-05-25T10:02:53.431Z,23.70
2018-05-25T10:05:20.972Z,23.30
2018-05-25T10:07:48.450Z,22.90
2018-05-25T10:10:15.981Z,22.60
2018-05-25T10:12:44.470Z,22.70
2018-05-25T10:15:12.564Z,22.70
2018-05-25T10:17:40.032Z,22.80
2018-05-25T10:20:07.740Z,23.30
2018-05-25T10:22:35.312Z,23.50
2018-05-25T10:25:02.803Z,23.80
2018-05-25T10:27:31.028Z,24.30
2018-05-25T10:29:58.503Z,24.70
2018-05-25T10:32:26.016Z,24.60
2018-05-25T10:34:54.290Z,24.70
2018-05-25T10:37:22.721Z,25.00
2018-05-25T10:39:50.248Z,25.00
2018-05-25T10:42:17.728Z,25.10
2018-05-25T10:44:45.207Z,25.10
2018-05-25T10:47:12.878Z,24.90
2018-05-25T10:49:40.382Z,24.50
2018-05-25T10:52:07.860Z,24.40
2018-05-25T10:54:35.358Z,24.20
2018-05-25T10:57:03.621Z,24.90
2018-05-25T10:59:31.095Z,24.80
2018-05-25T11:01:59.371Z,25.40
2018-05-25T11:04:27.700Z,25.80
2018-05-25T11:06:55.180Z,25.80
2018-05-25T11:09:23.256Z,26.20
2018-05-25T11:11:51.559Z,26.60
2018-05-25T11:14:19.790Z,27.20
2018-05-25T11:16:48.105Z,27.60
2018-05-25T11:19:16.354Z,28.10
2018-05-25T11:21:43.845Z,28.10
2018-05-25T11:24:12.275Z,27.80
2018-05-25T11:26:39.756Z,27.80
2018-05-25T11:29:08.003Z,25.40
2018-05-25T11:31:35.492Z,25.40
2018-05-25T11:34:03.002Z,24.40
2018-05-25T11:36:30.491Z,23.80
2018-05-25T11:38:58.756Z,24.00
2018-05-25T11:41:26.324Z,24.00
2018-05-25T11:43:53.818Z,24.10
2018-05-25T11:46:21.305Z,24.20
2018-05-25T11:48:49.420Z,24.30
2018-05-25T11:51:17.674Z,25.20
2018-05-25T11:53:45.220Z,25.20
2018-05-25T11:56:12.715Z,25.70
2018-05-25T11:58:40.977Z,25.00
2018-05-25T12:01:08.602Z,25.00
2018-05-25T12:03:36.107Z,24.80
2018-05-25T12:06:04.364Z,23.80
2018-05-25T12:08:31.875Z,23.80
2018-05-25T12:10:59.505Z,23.80
2018-05-25T12:13:27.892Z,24.80
2018-05-25T12:15:56.350Z,25.50
2018-05-25T12:18:24.647Z,25.60
2018-05-25T12:20:52.869Z,25.80
2018-05-25T12:23:20.347Z,25.80
2018-05-25T12:25:49.150Z,25.90
2018-05-25T12:28:17.405Z,25.90
2018-05-25T12:30:44.897Z,25.90
2018-05-25T12:33:12.511Z,26.50
2018-05-25T12:35:40.121Z,26.50
2018-05-25T12:38:07.624Z,26.90
2018-05-25T12:40:35.173Z,27.00
2018-05-25T12:43:02.815Z,27.30
2018-05-25T12:45:30.366Z,27.40
2018-05-25T12:47:57.936Z,27.40
2018-05-25T12:50:25.408Z,27.20
2018-05-25T12:52:53.048Z,27.50
2018-05-25T12:55:20.547Z,27.90
2018-05-25T12:57:48.095Z,27.90
2018-05-25T13:00:15.652Z,27.90
2018-05-25T13:02:43.213Z,28.00
2018-05-25T13:05:11.462Z,28.00
2018-05-25T13:07:38.953Z,27.90
2018-05-25T13:10:07.302Z,28.30
2018-05-25T13:12:34.773Z,28.30
2018-05-25T13:15:02.364Z,28.50
2018-05-25T13:17:29.873Z,28.50
2018-05-25T13:19:57.365Z,28.30
2018-05-25T13:22:25.600Z,28.40
2018-05-25T13:24:53.084Z,28.40
2018-05-25T13:27:20.730Z,28.10
2018-05-25T13:29:48.205Z,28.20
2018-05-25T13:32:16.472Z,29.10
2018-05-25T13:34:44.008Z,29.00
2018-05-25T13:37:11.505Z,29.30
2018-05-25T13:39:39.774Z,27.60
2018-05-25T13:42:08.036Z,27.10
2018-05-25T13:44:35.595Z,27.10
2018-05-25T13:47:03.955Z,26.30
2018-05-25T13:49:31.476Z,26.30
2018-05-25T13:51:59.174Z,26.10
2018-05-25T13:54:26.682Z,25.80
2018-05-25T13:56:54.167Z,25.50
2018-05-25T13:59:21.736Z,25.20
2018-05-25T14:01:49.252Z,25.20
2018-05-25T14:04:16.761Z,25.20
2018-05-25T14:06:44.260Z,25.50
2018-05-25T14:09:13.267Z,25.60
2018-05-25T14:11:41.242Z,25.60
2018-05-25T14:14:09.494Z,28.30
2018-05-25T14:16:36.992Z,28.30
2018-05-25T14:19:04.476Z,29.50
2018-05-25T14:21:31.954Z,30.80
2018-05-25T14:24:00.193Z,32.40
2018-05-25T14:26:27.769Z,32.40
2018-05-25T14:28:56.176Z,32.20
2018-05-25T14:31:23.665Z,32.20
2018-05-25T14:33:51.151Z,32.80
2018-05-25T14:36:18.656Z,33.20
2018-05-25T14:38:46.190Z,34.00
2018-05-25T14:41:13.725Z,34.60
2018-05-25T14:43:41.299Z,35.30
2018-05-25T14:46:09.669Z,33.70
2018-05-25T14:48:37.325Z,33.60
2018-05-25T14:51:04.837Z,32.90
2018-05-25T14:53:32.598Z,33.10
2018-05-25T14:56:00.151Z,33.50
2018-05-25T14:58:27.737Z,32.70
2018-05-25T15:00:55.251Z,31.50
2018-05-25T15:03:22.877Z,30.50
2018-05-25T15:05:51.265Z,29.40
2018-05-25T15:08:18.801Z,29.30
2018-05-25T15:10:46.377Z,28.60
2018-05-25T15:13:14.743Z,26.90
2018-05-25T15:15:42.232Z,26.80
2018-05-25T15:18:09.730Z,26.40
2018-05-25T15:20:37.241Z,26.20
2018-05-25T15:23:05.489Z,26.80
2018-05-25T15:25:33.117Z,26.80
2018-05-25T15:28:01.368Z,26.80
2018-05-25T15:30:29.127Z,26.80
2018-05-25T15:32:56.830Z,26.80
2018-05-25T15:35:24.393Z,26.60
2018-05-25T15:37:52.160Z,26.50
2018-05-25T15:40:20.418Z,26.00
2018-05-25T15:42:48.075Z,25.90
2018-05-25T15:45:16.570Z,25.80
2018-05-25T15:47:44.224Z,25.70
2018-05-25T15:50:11.838Z,25.70
2018-05-25T15:52:39.330Z,25.70
2018-05-25T15:55:06.828Z,25.80
2018-05-25T15:57:35.065Z,25.60
2018-05-25T16:00:02.837Z,25.60
2018-05-25T16:02:31.921Z,25.40
2018-05-25T16:05:00.265Z,25.50
2018-05-25T16:07:27.783Z,25.40
2018-05-25T16:09:55.301Z,25.40
2018-05-25T16:12:22.907Z,25.40
2018-05-25T16:14:51.265Z,27.60
2018-05-25T16:17:18.760Z,27.60
2018-05-25T16:19:46.894Z,29.30
2018-05-25T16:22:14.376Z,30.50
2018-05-25T16:24:42.654Z,32.10
2018-05-25T16:27:11.026Z,32.10
2018-05-25T16:29:39.503Z,31.00
2018-05-25T16:32:07.750Z,29.80
2018-05-25T16:34:35.273Z,29.70
2018-05-25T16:37:02.797Z,29.70
2018-05-25T16:39:31.059Z,31.20
2018-05-25T16:41:59.161Z,31.20
2018-05-25T16:44:26.656Z,31.90
2018-05-25T16:46:54.246Z,32.30
2018-05-25T16:49:22.733Z,32.70
2018-05-25T16:51:51.111Z,33.00
2018-05-25T16:54:19.360Z,32.80
2018-05-25T16:56:46.889Z,32.80
2018-05-25T16:59:14.492Z,33.00
2018-05-25T17:01:43.021Z,33.00
2018-05-25T17:04:10.517Z,33.00
2018-05-25T17:06:37.999Z,33.20
2018-05-25T17:09:06.274Z,33.00
2018-05-25T17:11:35.005Z,32.30
2018-05-25T17:14:02.550Z,32.30
2018-05-25T17:16:30.245Z,32.10
2018-05-25T17:18:57.824Z,32.40
2018-05-25T17:21:26.211Z,32.50
2018-05-25T17:23:54.522Z,32.00
2018-05-25T17:26:22.085Z,32.00
2018-05-25T17:28:49.744Z,32.10
2018-05-25T17:31:17.250Z,31.80
2018-05-25T17:33:44.728Z,32.10
2018-05-25T17:36:12.282Z,32.30
2018-05-25T17:38:39.820Z,32.70
2018-05-25T17:41:07.361Z,32.10
2018-05-25T17:43:34.855Z,31.60
2018-05-25T17:46:03.211Z,31.40
2018-05-25T17:48:30.867Z,31.30
2018-05-25T17:50:58.356Z,30.90
2018-05-25T17:53:26.617Z,28.90
2018-05-25T17:55:54.887Z,27.70
2018-05-25T17:58:23.132Z,26.70
2018-05-25T18:00:50.618Z,26.70
2018-05-25T18:03:19.447Z,25.50
2018-05-25T18:05:47.151Z,25.50
2018-05-25T18:08:14.632Z,25.10
2018-05-25T18:10:42.895Z,24.40
2018-05-25T18:13:11.166Z,24.00
2018-05-25T18:15:38.664Z,24.00
2018-05-25T18:18:06.263Z,23.80
2018-05-25T18:20:33.907Z,23.70
2018-05-25T18:23:01.486Z,23.40
2018-05-25T18:25:28.956Z,23.20
2018-05-25T18:27:56.482Z,22.90
2018-05-25T18:30:24.077Z,22.40
2018-05-25T18:32:52.360Z,21.70
2018-05-25T18:35:20.812Z,21.30
2018-05-25T18:37:48.324Z,21.30
2018-05-25T18:40:16.041Z,21.00
2018-05-25T18:42:43.829Z,20.40
2018-05-25T18:45:11.433Z,20.10
2018-05-25T18:47:39.069Z,19.90
2018-05-25T18:50:06.645Z,19.60
2018-05-25T18:52:34.132Z,19.50
2018-05-25T18:55:01.712Z,19.20
2018-05-25T18:57:30.003Z,18.80
2018-05-25T18:59:57.518Z,18.80
2018-05-25T19:02:25.035Z,18.80
2018-05-25T19:04:52.836Z,18.70
2018-05-25T19:07:20.374Z,18.70
2018-05-25T19:09:47.901Z,18.60
2018-05-25T19:12:15.410Z,18.50
2018-05-25T19:14:42.951Z,18.30
2018-05-25T19:17:10.519Z,18.20
2018-05-25T19:19:38.079Z,17.90
2018-05-25T19:22:05.681Z,17.70
2018-05-25T19:24:33.187Z,17.60
2018-05-25T19:27:00.678Z,17.50
2018-05-25T19:29:28.914Z,17.20
2018-05-25T19:31:56.434Z,17.10
2018-05-25T19:34:23.956Z,17.00
2018-05-25T19:36:51.449Z,16.90
2018-05-25T19:39:18.937Z,16.90
2018-05-25T19:41:47.152Z,16.80
2018-05-25T19:44:15.409Z,16.70
2018-05-25T19:46:43.509Z,16.70
2018-05-25T19:49:11.059Z,16.60
2018-05-25T19:51:39.324Z,16.40
2018-05-25T19:54:07.593Z,16.40
2018-05-25T19:56:35.813Z,16.40
2018-05-25T19:59:03.314Z,16.30
2018-05-25T20:01:30.935Z,16.20
2018-05-25T20:03:58.451Z,16.10
2018-05-25T20:06:26.710Z,16.00
2018-05-25T20:08:54.221Z,16.00
2018-05-25T20:11:21.879Z,16.00
2018-05-25T20:13:50.367Z,15.80
2018-05-25T20:16:17.929Z,15.80
2018-05-25T20:18:45.388Z,15.90
2018-05-25T20:21:12.988Z,15.90
2018-05-25T20:23:41.240Z,15.90
2018-05-25T20:26:08.740Z,15.90
2018-05-25T20:28:36.400Z,15.70
2018-05-25T20:31:03.860Z,15.50
2018-05-25T20:33:31.362Z,15.40
2018-05-25T20:35:58.862Z,15.30
2018-05-25T20:38:27.115Z,15.20
2018-05-25T20:40:55.257Z,15.20
2018-05-25T20:43:22.712Z,15.00
2018-05-25T20:45:50.187Z,15.00
2018-05-25T20:48:17.735Z,15.00
2018-05-25T20:50:45.316Z,15.00
2018-05-25T20:53:13.469Z,15.10
2018-05-25T20:55:40.954Z,15.00
2018-05-25T20:58:09.407Z,15.00
2018-05-25T21:00:36.883Z,15.00
2018-05-25T21:03:05.210Z,14.90
2018-05-25T21:05:32.758Z,14.90
2018-05-25T21:08:00.257Z,14.90
2018-05-25T21:10:27.930Z,14.80
2018-05-25T21:12:55.398Z,14.70
2018-05-25T21:15:23.635Z,14.70
2018-05-25T21:17:51.239Z,14.60
2018-05-25T21:20:18.680Z,14.60
2018-05-25T21:22:46.946Z,14.50
2018-05-25T21:25:14.425Z,14.50
2018-05-25T21:27:42.718Z,14.40
2018-05-25T21:30:10.328Z,14.30
2018-05-25T21:32:37.776Z,14.40
2018-05-25T21:35:05.410Z,14.40
2018-05-25T21:37:33.032Z,14.30
2018-05-25T21:40:01.299Z,14.20
2018-05-25T21:42:29.533Z,14.20
2018-05-25T21:44:57.036Z,14.20
2018-05-25T21:47:25.273Z,14.00
2018-05-25T21:49:54.383Z,14.00
2018-05-25T21:52:22.706Z,13.90
2018-05-25T21:54:50.652Z,13.90
2018-05-25T21:57:18.251Z,13.90
2018-05-25T21:59:45.794Z,13.90
2018-05-25T22:02:13.500Z,13.90
2018-05-25T22:04:40.960Z,13.80
2018-05-25T22:07:08.448Z,13.80
2018-05-25T22:09:36.713Z,13.60
2018-05-25T22:12:04.949Z,13.60
2018-05-25T22:14:32.461Z,13.60
2018-05-25T22:16:59.995Z,13.70
2018-05-25T22:19:28.398Z,13.50
2018-05-25T22:21:55.865Z,13.50
2018-05-25T22:24:23.525Z,13.40
2018-05-25T22:26:51.181Z,13.50
2018-05-25T22:29:18.670Z,13.50
2018-05-25T22:31:46.332Z,13.40
2018-05-25T22:34:13.803Z,13.40
2018-05-25T22:36:41.296Z,13.40
2018-05-25T22:39:08.764Z,13.40
2018-05-25T22:41:36.264Z,13.40
2018-05-25T22:44:15.767Z,13.40
2018-05-25T22:46:55.216Z,13.40
2018-05-25T22:49:34.509Z,13.30
2018-05-25T22:52:14.088Z,13.20
2018-05-25T22:54:42.469Z,13.20
2018-05-25T22:57:10.103Z,13.10
2018-05-25T22:59:38.583Z,13.00
2018-05-25T23:02:06.180Z,13.00
2018-05-25T23:04:33.708Z,13.00
2018-05-25T23:07:02.438Z,13.00
2018-05-25T23:09:30.075Z,12.90
2018-05-25T23:11:57.647Z,12.90
2018-05-25T23:14:25.146Z,12.90
2018-05-25T23:16:53.379Z,12.70
2018-05-25T23:19:20.877Z,12.70
2018-05-25T23:21:48.360Z,12.70
2018-05-25T23:24:15.997Z,12.70
2018-05-25T23:26:43.475Z,12.70
2018-05-25T23:29:10.948Z,12.70
2018-05-25T23:31:38.431Z,12.60
2018-05-25T23:34:06.003Z,12.60
2018-05-25T23:36:34.260Z,12.60
2018-05-25T23:39:01.809Z,12.50
2018-05-25T23:41:29.285Z,12.50
2018-05-25T23:43:57.533Z,12.40
2018-05-25T23:46:25.304Z,12.40
2018-05-25T23:48:52.795Z,12.40
2018-05-25T23:51:21.087Z,12.40
2018-05-25T23:53:49.171Z,12.40
2018-05-25T23:56:16.648Z,12.30
2018-05-25T23:58:44.305Z,12.40
